sensor_id;sensor_type;location;lat;lon;timestamp;P1;durP1;ratioP1;P2;durP2;ratioP2
30147;SDS011;16960;49.404;8.248;2023-11-19T00:00:59;1.00;;;0.90;;
30147;SDS011;16960;49.404;8.248;2023-11-19T00:03:27;1.40;;;1.30;;
30147;SDS011;16960;49.404;8.248;2023-11-19T00:05:54;1.10;;;1.00;;
30147;SDS011;16960;49.404;8.248;2023-11-19T00:08:21;1.10;;;0.97;;
30147;SDS011;16960;49.404;8.248;2023-11-19T00:10:50;1.97;;;1.07;;
30147;SDS011;16960;49.404;8.248;2023-11-19T00:13:17;1.00;;;1.00;;
30147;SDS011;16960;49.404;8.248;2023-11-19T00:15:44;1.47;;;1.20;;
30147;SDS011;16960;49.404;8.248;2023-11-19T00:18:12;0.80;;;0.80;;
30147;SDS011;16960;49.404;8.248;2023-11-19T00:20:41;1.40;;;1.27;;
30147;SDS011;16960;49.404;8.248;2023-11-19T00:23:09;2.97;;;1.07;;
30147;SDS011;16960;49.404;8.248;2023-11-19T00:25:36;2.00;;;1.10;;
30147;SDS011;16960;49.404;8.248;2023-11-19T00:28:04;1.47;;;0.93;;
30147;SDS011;16960;49.404;8.248;2023-11-19T00:30:31;2.23;;;1.20;;
30147;SDS011;16960;49.404;8.248;2023-11-19T00:32:58;1.30;;;1.20;;
30147;SDS011;16960;49.404;8.248;2023-11-19T00:35:38;1.00;;;1.00;;
30147;SDS011;16960;49.404;8.248;2023-11-19T00:38:06;1.07;;;0.93;;
30147;SDS011;16960;49.404;8.248;2023-11-19T00:40:33;0.80;;;0.67;;
30147;SDS011;16960;49.404;8.248;2023-11-19T00:43:00;1.37;;;1.00;;
30147;SDS011;16960;49.404;8.248;2023-11-19T00:45:27;1.00;;;0.90;;
30147;SDS011;16960;49.404;8.248;2023-11-19T00:47:54;1.43;;;0.83;;
30147;SDS011;16960;49.404;8.248;2023-11-19T00:50:21;1.17;;;0.90;;
30147;SDS011;16960;49.404;8.248;2023-11-19T00:52:50;0.90;;;0.80;;
30147;SDS011;16960;49.404;8.248;2023-11-19T00:55:19;1.30;;;1.00;;
30147;SDS011;16960;49.404;8.248;2023-11-19T00:57:56;1.43;;;0.80;;
30147;SDS011;16960;49.404;8.248;2023-11-19T01:01:05;1.03;;;0.93;;
30147;SDS011;16960;49.404;8.248;2023-11-19T01:03:32;1.40;;;0.93;;
30147;SDS011;16960;49.404;8.248;2023-11-19T01:05:59;1.10;;;1.00;;
30147;SDS011;16960;49.404;8.248;2023-11-19T01:08:29;0.93;;;0.70;;
30147;SDS011;16960;49.404;8.248;2023-11-19T01:10:55;0.80;;;0.80;;
30147;SDS011;16960;49.404;8.248;2023-11-19T01:13:22;1.07;;;0.97;;
30147;SDS011;16960;49.404;8.248;2023-11-19T01:15:49;1.07;;;0.97;;
30147;SDS011;16960;49.404;8.248;2023-11-19T01:18:16;0.93;;;0.80;;
30147;SDS011;16960;49.404;8.248;2023-11-19T01:20:43;1.00;;;0.87;;
30147;SDS011;16960;49.404;8.248;2023-11-19T01:23:28;2.30;;;1.07;;
30147;SDS011;16960;49.404;8.248;2023-11-19T01:25:56;1.20;;;1.00;;
30147;SDS011;16960;49.404;8.248;2023-11-19T01:28:23;0.80;;;0.77;;
30147;SDS011;16960;49.404;8.248;2023-11-19T01:30:50;1.30;;;0.90;;
30147;SDS011;16960;49.404;8.248;2023-11-19T01:33:17;0.90;;;0.90;;
30147;SDS011;16960;49.404;8.248;2023-11-19T01:35:44;0.70;;;0.70;;
30147;SDS011;16960;49.404;8.248;2023-11-19T01:38:11;0.83;;;0.77;;
30147;SDS011;16960;49.404;8.248;2023-11-19T01:40:39;1.30;;;1.00;;
30147;SDS011;16960;49.404;8.248;2023-11-19T01:43:06;1.03;;;0.93;;
30147;SDS011;16960;49.404;8.248;2023-11-19T01:45:36;0.80;;;0.60;;
30147;SDS011;16960;49.404;8.248;2023-11-19T01:48:05;1.23;;;1.00;;
30147;SDS011;16960;49.404;8.248;2023-11-19T01:50:32;1.70;;;0.80;;
30147;SDS011;16960;49.404;8.248;2023-11-19T01:53:00;1.20;;;0.70;;
30147;SDS011;16960;49.404;8.248;2023-11-19T01:55:27;1.00;;;0.90;;
30147;SDS011;16960;49.404;8.248;2023-11-19T01:57:57;0.83;;;0.70;;
30147;SDS011;16960;49.404;8.248;2023-11-19T02:00:27;1.03;;;0.90;;
30147;SDS011;16960;49.404;8.248;2023-11-19T02:02:54;0.80;;;0.80;;
30147;SDS011;16960;49.404;8.248;2023-11-19T02:05:22;1.10;;;0.90;;
30147;SDS011;16960;49.404;8.248;2023-11-19T02:07:49;0.77;;;0.77;;
30147;SDS011;16960;49.404;8.248;2023-11-19T02:10:16;0.90;;;0.77;;
30147;SDS011;16960;49.404;8.248;2023-11-19T02:12:44;1.23;;;0.70;;
30147;SDS011;16960;49.404;8.248;2023-11-19T02:15:13;0.93;;;0.83;;
30147;SDS011;16960;49.404;8.248;2023-11-19T02:17:40;1.20;;;1.10;;
30147;SDS011;16960;49.404;8.248;2023-11-19T02:20:08;1.07;;;0.70;;
30147;SDS011;16960;49.404;8.248;2023-11-19T02:22:37;0.80;;;0.70;;
30147;SDS011;16960;49.404;8.248;2023-11-19T02:25:04;0.90;;;0.70;;
30147;SDS011;16960;49.404;8.248;2023-11-19T02:27:44;1.53;;;0.90;;
30147;SDS011;16960;49.404;8.248;2023-11-19T02:30:17;0.70;;;0.70;;
30147;SDS011;16960;49.404;8.248;2023-11-19T02:32:44;1.10;;;1.00;;
30147;SDS011;16960;49.404;8.248;2023-11-19T02:35:11;1.07;;;0.73;;
30147;SDS011;16960;49.404;8.248;2023-11-19T02:37:38;0.73;;;0.60;;
30147;SDS011;16960;49.404;8.248;2023-11-19T02:40:05;0.80;;;0.80;;
30147;SDS011;16960;49.404;8.248;2023-11-19T02:42:34;0.80;;;0.70;;
30147;SDS011;16960;49.404;8.248;2023-11-19T02:45:02;0.80;;;0.73;;
30147;SDS011;16960;49.404;8.248;2023-11-19T02:47:31;0.57;;;0.43;;
30147;SDS011;16960;49.404;8.248;2023-11-19T02:49:58;0.93;;;0.80;;
30147;SDS011;16960;49.404;8.248;2023-11-19T02:52:25;0.70;;;0.70;;
30147;SDS011;16960;49.404;8.248;2023-11-19T02:54:53;0.77;;;0.70;;
30147;SDS011;16960;49.404;8.248;2023-11-19T02:57:20;1.10;;;0.93;;
30147;SDS011;16960;49.404;8.248;2023-11-19T02:59:47;0.70;;;0.60;;
30147;SDS011;16960;49.404;8.248;2023-11-19T03:02:16;0.73;;;0.53;;
30147;SDS011;16960;49.404;8.248;2023-11-19T03:04:43;1.07;;;0.70;;
30147;SDS011;16960;49.404;8.248;2023-11-19T03:07:10;0.80;;;0.70;;
30147;SDS011;16960;49.404;8.248;2023-11-19T03:09:38;1.03;;;0.80;;
30147;SDS011;16960;49.404;8.248;2023-11-19T03:12:07;1.60;;;0.90;;
30147;SDS011;16960;49.404;8.248;2023-11-19T03:14:40;0.60;;;0.60;;
30147;SDS011;16960;49.404;8.248;2023-11-19T03:17:07;0.80;;;0.80;;
30147;SDS011;16960;49.404;8.248;2023-11-19T03:19:36;1.17;;;0.83;;
30147;SDS011;16960;49.404;8.248;2023-11-19T03:22:03;0.70;;;0.50;;
30147;SDS011;16960;49.404;8.248;2023-11-19T03:24:30;1.43;;;0.50;;
30147;SDS011;16960;49.404;8.248;2023-11-19T03:26:57;0.77;;;0.77;;
30147;SDS011;16960;49.404;8.248;2023-11-19T03:29:24;1.00;;;0.90;;
30147;SDS011;16960;49.404;8.248;2023-11-19T03:31:51;0.63;;;0.60;;
30147;SDS011;16960;49.404;8.248;2023-11-19T03:34:18;0.60;;;0.60;;
30147;SDS011;16960;49.404;8.248;2023-11-19T03:36:46;0.70;;;0.70;;
30147;SDS011;16960;49.404;8.248;2023-11-19T03:39:14;0.70;;;0.70;;
30147;SDS011;16960;49.404;8.248;2023-11-19T03:41:41;0.60;;;0.50;;
30147;SDS011;16960;49.404;8.248;2023-11-19T03:44:23;1.57;;;0.80;;
30147;SDS011;16960;49.404;8.248;2023-11-19T03:46:52;0.77;;;0.70;;
30147;SDS011;16960;49.404;8.248;2023-11-19T03:49:19;0.70;;;0.60;;
30147;SDS011;16960;49.404;8.248;2023-11-19T03:51:47;2.70;;;0.67;;
30147;SDS011;16960;49.404;8.248;2023-11-19T03:54:15;0.63;;;0.57;;
30147;SDS011;16960;49.404;8.248;2023-11-19T03:56:42;1.30;;;0.60;;
30147;SDS011;16960;49.404;8.248;2023-11-19T03:59:08;0.57;;;0.57;;
30147;SDS011;16960;49.404;8.248;2023-11-19T04:01:35;0.60;;;0.60;;
30147;SDS011;16960;49.404;8.248;2023-11-19T04:04:03;0.70;;;0.70;;
30147;SDS011;16960;49.404;8.248;2023-11-19T04:06:31;1.73;;;1.00;;
30147;SDS011;16960;49.404;8.248;2023-11-19T04:08:59;0.70;;;0.60;;
30147;SDS011;16960;49.404;8.248;2023-11-19T04:11:26;0.50;;;0.50;;
30147;SDS011;16960;49.404;8.248;2023-11-19T04:13:54;0.50;;;0.50;;
30147;SDS011;16960;49.404;8.248;2023-11-19T04:16:25;0.60;;;0.50;;
30147;SDS011;16960;49.404;8.248;2023-11-19T04:18:54;1.00;;;0.60;;
30147;SDS011;16960;49.404;8.248;2023-11-19T04:21:21;0.50;;;0.43;;
30147;SDS011;16960;49.404;8.248;2023-11-19T04:23:48;1.10;;;0.70;;
30147;SDS011;16960;49.404;8.248;2023-11-19T04:26:16;0.73;;;0.60;;
30147;SDS011;16960;49.404;8.248;2023-11-19T04:28:43;0.83;;;0.63;;
30147;SDS011;16960;49.404;8.248;2023-11-19T04:31:10;0.93;;;0.50;;
30147;SDS011;16960;49.404;8.248;2023-11-19T04:33:37;0.70;;;0.60;;
30147;SDS011;16960;49.404;8.248;2023-11-19T04:36:04;0.83;;;0.50;;
30147;SDS011;16960;49.404;8.248;2023-11-19T04:38:32;0.60;;;0.57;;
30147;SDS011;16960;49.404;8.248;2023-11-19T04:40:59;0.73;;;0.67;;
30147;SDS011;16960;49.404;8.248;2023-11-19T04:43:28;0.70;;;0.50;;
30147;SDS011;16960;49.404;8.248;2023-11-19T04:45:55;1.27;;;0.50;;
30147;SDS011;16960;49.404;8.248;2023-11-19T04:48:22;0.60;;;0.50;;
30147;SDS011;16960;49.404;8.248;2023-11-19T04:50:49;0.60;;;0.60;;
30147;SDS011;16960;49.404;8.248;2023-11-19T04:53:17;1.23;;;0.90;;
30147;SDS011;16960;49.404;8.248;2023-11-19T04:55:44;0.60;;;0.50;;
30147;SDS011;16960;49.404;8.248;2023-11-19T04:58:11;0.90;;;0.50;;
30147;SDS011;16960;49.404;8.248;2023-11-19T05:00:39;0.60;;;0.43;;
30147;SDS011;16960;49.404;8.248;2023-11-19T05:03:06;0.80;;;0.63;;
30147;SDS011;16960;49.404;8.248;2023-11-19T05:05:33;0.50;;;0.40;;
30147;SDS011;16960;49.404;8.248;2023-11-19T05:08:00;0.70;;;0.60;;
30147;SDS011;16960;49.404;8.248;2023-11-19T05:10:27;0.80;;;0.70;;
30147;SDS011;16960;49.404;8.248;2023-11-19T05:12:54;1.30;;;0.70;;
30147;SDS011;16960;49.404;8.248;2023-11-19T05:15:21;0.90;;;0.60;;
30147;SDS011;16960;49.404;8.248;2023-11-19T05:17:50;0.53;;;0.47;;
30147;SDS011;16960;49.404;8.248;2023-11-19T05:20:17;0.70;;;0.60;;
30147;SDS011;16960;49.404;8.248;2023-11-19T05:22:44;0.60;;;0.60;;
30147;SDS011;16960;49.404;8.248;2023-11-19T05:25:11;1.03;;;0.70;;
30147;SDS011;16960;49.404;8.248;2023-11-19T05:27:38;0.50;;;0.40;;
30147;SDS011;16960;49.404;8.248;2023-11-19T05:30:06;0.57;;;0.43;;
30147;SDS011;16960;49.404;8.248;2023-11-19T05:32:34;0.60;;;0.50;;
30147;SDS011;16960;49.404;8.248;2023-11-19T05:35:03;0.50;;;0.50;;
30147;SDS011;16960;49.404;8.248;2023-11-19T05:37:30;0.60;;;0.57;;
30147;SDS011;16960;49.404;8.248;2023-11-19T05:39:57;0.50;;;0.40;;
30147;SDS011;16960;49.404;8.248;2023-11-19T05:42:25;0.60;;;0.50;;
30147;SDS011;16960;49.404;8.248;2023-11-19T05:44:52;0.70;;;0.63;;
30147;SDS011;16960;49.404;8.248;2023-11-19T05:47:19;0.47;;;0.40;;
30147;SDS011;16960;49.404;8.248;2023-11-19T05:49:46;0.60;;;0.50;;
30147;SDS011;16960;49.404;8.248;2023-11-19T05:52:15;0.70;;;0.63;;
30147;SDS011;16960;49.404;8.248;2023-11-19T05:54:42;0.50;;;0.40;;
30147;SDS011;16960;49.404;8.248;2023-11-19T05:57:09;0.47;;;0.30;;
30147;SDS011;16960;49.404;8.248;2023-11-19T05:59:39;0.60;;;0.50;;
30147;SDS011;16960;49.404;8.248;2023-11-19T06:02:05;0.50;;;0.43;;
30147;SDS011;16960;49.404;8.248;2023-11-19T06:04:32;0.70;;;0.70;;
30147;SDS011;16960;49.404;8.248;2023-11-19T06:07:11;0.40;;;0.40;;
30147;SDS011;16960;49.404;8.248;2023-11-19T06:09:53;0.80;;;0.47;;
30147;SDS011;16960;49.404;8.248;2023-11-19T06:12:19;0.60;;;0.50;;
30147;SDS011;16960;49.404;8.248;2023-11-19T06:14:46;1.47;;;0.80;;
30147;SDS011;16960;49.404;8.248;2023-11-19T06:17:13;0.83;;;0.60;;
30147;SDS011;16960;49.404;8.248;2023-11-19T06:19:40;1.10;;;0.90;;
30147;SDS011;16960;49.404;8.248;2023-11-19T06:22:07;0.60;;;0.50;;
30147;SDS011;16960;49.404;8.248;2023-11-19T06:24:35;0.70;;;0.40;;
30147;SDS011;16960;49.404;8.248;2023-11-19T06:27:02;0.60;;;0.50;;
30147;SDS011;16960;49.404;8.248;2023-11-19T06:29:30;0.70;;;0.60;;
30147;SDS011;16960;49.404;8.248;2023-11-19T06:31:57;0.63;;;0.53;;
30147;SDS011;16960;49.404;8.248;2023-11-19T06:34:24;0.70;;;0.60;;
30147;SDS011;16960;49.404;8.248;2023-11-19T06:36:51;0.70;;;0.57;;
30147;SDS011;16960;49.404;8.248;2023-11-19T06:39:18;0.97;;;0.70;;
30147;SDS011;16960;49.404;8.248;2023-11-19T06:41:46;1.60;;;0.60;;
30147;SDS011;16960;49.404;8.248;2023-11-19T06:44:13;1.70;;;0.50;;
30147;SDS011;16960;49.404;8.248;2023-11-19T06:46:40;1.00;;;0.70;;
30147;SDS011;16960;49.404;8.248;2023-11-19T06:49:07;1.00;;;0.50;;
30147;SDS011;16960;49.404;8.248;2023-11-19T06:51:34;0.97;;;0.47;;
30147;SDS011;16960;49.404;8.248;2023-11-19T06:54:01;0.67;;;0.50;;
30147;SDS011;16960;49.404;8.248;2023-11-19T06:56:28;0.43;;;0.43;;
30147;SDS011;16960;49.404;8.248;2023-11-19T06:58:56;0.50;;;0.50;;
30147;SDS011;16960;49.404;8.248;2023-11-19T07:01:23;0.50;;;0.37;;
30147;SDS011;16960;49.404;8.248;2023-11-19T07:03:50;3.47;;;0.50;;
30147;SDS011;16960;49.404;8.248;2023-11-19T07:06:17;0.50;;;0.40;;
30147;SDS011;16960;49.404;8.248;2023-11-19T07:08:44;0.70;;;0.50;;
30147;SDS011;16960;49.404;8.248;2023-11-19T07:11:11;1.00;;;0.60;;
30147;SDS011;16960;49.404;8.248;2023-11-19T07:13:39;0.50;;;0.40;;
30147;SDS011;16960;49.404;8.248;2023-11-19T07:16:08;0.60;;;0.60;;
30147;SDS011;16960;49.404;8.248;2023-11-19T07:18:36;0.53;;;0.53;;
30147;SDS011;16960;49.404;8.248;2023-11-19T07:21:02;0.70;;;0.50;;
30147;SDS011;16960;49.404;8.248;2023-11-19T07:23:30;1.33;;;0.80;;
30147;SDS011;16960;49.404;8.248;2023-11-19T07:25:58;0.60;;;0.50;;
30147;SDS011;16960;49.404;8.248;2023-11-19T07:28:25;0.63;;;0.43;;
30147;SDS011;16960;49.404;8.248;2023-11-19T07:30:53;0.40;;;0.30;;
30147;SDS011;16960;49.404;8.248;2023-11-19T07:33:23;0.53;;;0.50;;
30147;SDS011;16960;49.404;8.248;2023-11-19T07:35:50;0.60;;;0.40;;
30147;SDS011;16960;49.404;8.248;2023-11-19T07:38:17;0.70;;;0.53;;
30147;SDS011;16960;49.404;8.248;2023-11-19T07:40:44;1.00;;;0.60;;
30147;SDS011;16960;49.404;8.248;2023-11-19T07:43:12;0.97;;;0.50;;
30147;SDS011;16960;49.404;8.248;2023-11-19T07:45:39;1.17;;;0.90;;
30147;SDS011;16960;49.404;8.248;2023-11-19T07:48:10;0.57;;;0.50;;
30147;SDS011;16960;49.404;8.248;2023-11-19T07:50:39;0.60;;;0.50;;
30147;SDS011;16960;49.404;8.248;2023-11-19T07:53:06;0.43;;;0.37;;
30147;SDS011;16960;49.404;8.248;2023-11-19T07:55:34;0.60;;;0.60;;
30147;SDS011;16960;49.404;8.248;2023-11-19T07:58:00;2.30;;;0.60;;
30147;SDS011;16960;49.404;8.248;2023-11-19T08:00:27;0.80;;;0.50;;
30147;SDS011;16960;49.404;8.248;2023-11-19T08:02:54;0.40;;;0.40;;
30147;SDS011;16960;49.404;8.248;2023-11-19T08:05:21;0.53;;;0.50;;
30147;SDS011;16960;49.404;8.248;2023-11-19T08:07:51;0.60;;;0.40;;
30147;SDS011;16960;49.404;8.248;2023-11-19T08:10:18;0.97;;;0.50;;
30147;SDS011;16960;49.404;8.248;2023-11-19T08:12:45;1.53;;;0.50;;
30147;SDS011;16960;49.404;8.248;2023-11-19T08:15:12;1.10;;;0.60;;
30147;SDS011;16960;49.404;8.248;2023-11-19T08:17:38;2.83;;;0.67;;
30147;SDS011;16960;49.404;8.248;2023-11-19T08:20:06;1.13;;;0.60;;
30147;SDS011;16960;49.404;8.248;2023-11-19T08:22:35;0.80;;;0.50;;
30147;SDS011;16960;49.404;8.248;2023-11-19T08:25:04;0.83;;;0.50;;
30147;SDS011;16960;49.404;8.248;2023-11-19T08:27:31;1.57;;;0.50;;
30147;SDS011;16960;49.404;8.248;2023-11-19T08:29:58;0.97;;;0.50;;
30147;SDS011;16960;49.404;8.248;2023-11-19T08:32:25;2.07;;;0.80;;
30147;SDS011;16960;49.404;8.248;2023-11-19T08:34:52;1.07;;;0.70;;
30147;SDS011;16960;49.404;8.248;2023-11-19T08:37:19;2.07;;;0.80;;
30147;SDS011;16960;49.404;8.248;2023-11-19T08:39:47;2.07;;;0.50;;
30147;SDS011;16960;49.404;8.248;2023-11-19T08:42:15;1.30;;;0.70;;
30147;SDS011;16960;49.404;8.248;2023-11-19T08:44:42;0.50;;;0.43;;
30147;SDS011;16960;49.404;8.248;2023-11-19T08:47:12;1.73;;;0.70;;
30147;SDS011;16960;49.404;8.248;2023-11-19T08:49:41;1.00;;;0.53;;
30147;SDS011;16960;49.404;8.248;2023-11-19T08:52:08;0.50;;;0.50;;
30147;SDS011;16960;49.404;8.248;2023-11-19T08:54:35;0.70;;;0.60;;
30147;SDS011;16960;49.404;8.248;2023-11-19T08:57:02;1.03;;;0.60;;
30147;SDS011;16960;49.404;8.248;2023-11-19T08:59:31;1.00;;;0.63;;
30147;SDS011;16960;49.404;8.248;2023-11-19T09:01:58;1.30;;;0.80;;
30147;SDS011;16960;49.404;8.248;2023-11-19T09:04:24;1.77;;;0.90;;
30147;SDS011;16960;49.404;8.248;2023-11-19T09:06:51;1.13;;;0.60;;
30147;SDS011;16960;49.404;8.248;2023-11-19T09:09:18;1.90;;;0.83;;
30147;SDS011;16960;49.404;8.248;2023-11-19T09:11:45;0.43;;;0.40;;
30147;SDS011;16960;49.404;8.248;2023-11-19T09:14:16;0.70;;;0.67;;
30147;SDS011;16960;49.404;8.248;2023-11-19T09:16:52;1.80;;;0.60;;
30147;SDS011;16960;49.404;8.248;2023-11-19T09:19:19;0.80;;;0.53;;
30147;SDS011;16960;49.404;8.248;2023-11-19T09:21:46;1.23;;;0.50;;
30147;SDS011;16960;49.404;8.248;2023-11-19T09:24:13;0.67;;;0.53;;
30147;SDS011;16960;49.404;8.248;2023-11-19T09:26:40;1.87;;;0.70;;
30147;SDS011;16960;49.404;8.248;2023-11-19T09:29:07;1.03;;;0.70;;
30147;SDS011;16960;49.404;8.248;2023-11-19T09:31:34;1.27;;;0.80;;
30147;SDS011;16960;49.404;8.248;2023-11-19T09:34:02;1.10;;;0.53;;
30147;SDS011;16960;49.404;8.248;2023-11-19T09:36:29;1.20;;;0.63;;
30147;SDS011;16960;49.404;8.248;2023-11-19T09:38:56;1.90;;;0.60;;
30147;SDS011;16960;49.404;8.248;2023-11-19T09:41:25;1.43;;;1.00;;
30147;SDS011;16960;49.404;8.248;2023-11-19T09:43:53;0.80;;;0.53;;
30147;SDS011;16960;49.404;8.248;2023-11-19T09:46:20;0.93;;;0.77;;
30147;SDS011;16960;49.404;8.248;2023-11-19T09:48:49;0.60;;;0.50;;
30147;SDS011;16960;49.404;8.248;2023-11-19T09:51:21;0.80;;;0.40;;
30147;SDS011;16960;49.404;8.248;2023-11-19T09:53:48;0.73;;;0.50;;
30147;SDS011;16960;49.404;8.248;2023-11-19T09:56:16;2.27;;;0.50;;
30147;SDS011;16960;49.404;8.248;2023-11-19T09:58:43;1.43;;;0.70;;
30147;SDS011;16960;49.404;8.248;2023-11-19T10:01:10;0.80;;;0.60;;
30147;SDS011;16960;49.404;8.248;2023-11-19T10:03:37;1.87;;;0.77;;
30147;SDS011;16960;49.404;8.248;2023-11-19T10:06:06;1.63;;;0.60;;
30147;SDS011;16960;49.404;8.248;2023-11-19T10:08:36;0.70;;;0.60;;
30147;SDS011;16960;49.404;8.248;2023-11-19T10:11:04;0.50;;;0.47;;
30147;SDS011;16960;49.404;8.248;2023-11-19T10:13:31;0.83;;;0.50;;
30147;SDS011;16960;49.404;8.248;2023-11-19T10:16:03;2.60;;;0.70;;
30147;SDS011;16960;49.404;8.248;2023-11-19T10:18:33;0.67;;;0.60;;
30147;SDS011;16960;49.404;8.248;2023-11-19T10:21:03;1.50;;;0.70;;
30147;SDS011;16960;49.404;8.248;2023-11-19T10:23:31;0.70;;;0.50;;
30147;SDS011;16960;49.404;8.248;2023-11-19T10:26:17;2.00;;;0.90;;
30147;SDS011;16960;49.404;8.248;2023-11-19T10:28:45;1.17;;;0.50;;
30147;SDS011;16960;49.404;8.248;2023-11-19T10:31:12;1.33;;;0.77;;
30147;SDS011;16960;49.404;8.248;2023-11-19T10:33:40;1.60;;;0.60;;
30147;SDS011;16960;49.404;8.248;2023-11-19T10:36:07;1.20;;;0.60;;
30147;SDS011;16960;49.404;8.248;2023-11-19T10:38:37;1.50;;;0.50;;
30147;SDS011;16960;49.404;8.248;2023-11-19T10:41:06;0.83;;;0.47;;
30147;SDS011;16960;49.404;8.248;2023-11-19T10:43:42;1.23;;;0.43;;
30147;SDS011;16960;49.404;8.248;2023-11-19T10:46:11;1.77;;;0.60;;
30147;SDS011;16960;49.404;8.248;2023-11-19T10:48:38;2.50;;;0.60;;
30147;SDS011;16960;49.404;8.248;2023-11-19T10:51:06;1.47;;;0.90;;
30147;SDS011;16960;49.404;8.248;2023-11-19T10:53:36;1.40;;;0.70;;
30147;SDS011;16960;49.404;8.248;2023-11-19T10:56:06;1.03;;;0.67;;
30147;SDS011;16960;49.404;8.248;2023-11-19T10:58:36;1.20;;;0.60;;
30147;SDS011;16960;49.404;8.248;2023-11-19T11:01:11;1.93;;;0.60;;
30147;SDS011;16960;49.404;8.248;2023-11-19T11:03:42;0.90;;;0.60;;
30147;SDS011;16960;49.404;8.248;2023-11-19T11:06:11;1.50;;;0.77;;
30147;SDS011;16960;49.404;8.248;2023-11-19T11:08:39;1.67;;;0.60;;
30147;SDS011;16960;49.404;8.248;2023-11-19T11:11:08;1.17;;;0.87;;
30147;SDS011;16960;49.404;8.248;2023-11-19T11:13:40;0.93;;;0.67;;
30147;SDS011;16960;49.404;8.248;2023-11-19T11:16:09;0.70;;;0.50;;
30147;SDS011;16960;49.404;8.248;2023-11-19T11:18:36;1.23;;;0.50;;
30147;SDS011;16960;49.404;8.248;2023-11-19T11:21:04;1.40;;;0.60;;
30147;SDS011;16960;49.404;8.248;2023-11-19T11:23:56;2.90;;;1.10;;
30147;SDS011;16960;49.404;8.248;2023-11-19T11:26:50;0.97;;;0.60;;
30147;SDS011;16960;49.404;8.248;2023-11-19T11:29:31;1.20;;;0.60;;
30147;SDS011;16960;49.404;8.248;2023-11-19T11:32:08;0.80;;;0.80;;
30147;SDS011;16960;49.404;8.248;2023-11-19T11:34:49;1.03;;;0.70;;
30147;SDS011;16960;49.404;8.248;2023-11-19T11:37:26;1.40;;;0.70;;
30147;SDS011;16960;49.404;8.248;2023-11-19T11:39:58;1.00;;;0.67;;
30147;SDS011;16960;49.404;8.248;2023-11-19T11:42:32;1.07;;;0.50;;
30147;SDS011;16960;49.404;8.248;2023-11-19T11:45:00;1.63;;;0.90;;
30147;SDS011;16960;49.404;8.248;2023-11-19T11:50:33;0.90;;;0.50;;
30147;SDS011;16960;49.404;8.248;2023-11-19T11:53:15;1.07;;;0.60;;
30147;SDS011;16960;49.404;8.248;2023-11-19T11:55:56;1.60;;;0.90;;
30147;SDS011;16960;49.404;8.248;2023-11-19T11:58:27;0.90;;;0.50;;
30147;SDS011;16960;49.404;8.248;2023-11-19T12:00:57;1.80;;;0.50;;
30147;SDS011;16960;49.404;8.248;2023-11-19T12:03:26;1.13;;;0.40;;
30147;SDS011;16960;49.404;8.248;2023-11-19T12:05:55;0.77;;;0.70;;
30147;SDS011;16960;49.404;8.248;2023-11-19T12:08:27;1.67;;;0.83;;
30147;SDS011;16960;49.404;8.248;2023-11-19T12:10:57;0.73;;;0.50;;
30147;SDS011;16960;49.404;8.248;2023-11-19T12:13:24;1.03;;;0.60;;
30147;SDS011;16960;49.404;8.248;2023-11-19T12:16:10;1.50;;;0.50;;
30147;SDS011;16960;49.404;8.248;2023-11-19T12:18:40;1.77;;;0.57;;
30147;SDS011;16960;49.404;8.248;2023-11-19T12:21:08;0.70;;;0.50;;
30147;SDS011;16960;49.404;8.248;2023-11-19T12:23:44;1.90;;;0.60;;
30147;SDS011;16960;49.404;8.248;2023-11-19T12:29:06;1.37;;;0.67;;
30147;SDS011;16960;49.404;8.248;2023-11-19T12:31:33;1.50;;;0.67;;
30147;SDS011;16960;49.404;8.248;2023-11-19T12:34:08;0.70;;;0.50;;
30147;SDS011;16960;49.404;8.248;2023-11-19T12:36:37;1.23;;;0.73;;
30147;SDS011;16960;49.404;8.248;2023-11-19T12:39:08;2.10;;;0.73;;
30147;SDS011;16960;49.404;8.248;2023-11-19T12:41:53;2.10;;;0.60;;
30147;SDS011;16960;49.404;8.248;2023-11-19T12:44:22;1.47;;;0.67;;
30147;SDS011;16960;49.404;8.248;2023-11-19T12:46:58;1.43;;;0.67;;
30147;SDS011;16960;49.404;8.248;2023-11-19T12:49:29;2.20;;;0.67;;
30147;SDS011;16960;49.404;8.248;2023-11-19T12:51:56;1.50;;;0.60;;
30147;SDS011;16960;49.404;8.248;2023-11-19T12:54:31;0.90;;;0.50;;
30147;SDS011;16960;49.404;8.248;2023-11-19T12:56:59;0.90;;;0.50;;
30147;SDS011;16960;49.404;8.248;2023-11-19T12:59:27;1.73;;;0.80;;
30147;SDS011;16960;49.404;8.248;2023-11-19T13:01:54;3.70;;;0.70;;
30147;SDS011;16960;49.404;8.248;2023-11-19T13:04:21;2.07;;;1.07;;
30147;SDS011;16960;49.404;8.248;2023-11-19T13:06:49;0.53;;;0.40;;
30147;SDS011;16960;49.404;8.248;2023-11-19T13:09:23;1.17;;;0.77;;
30147;SDS011;16960;49.404;8.248;2023-11-19T13:11:50;1.20;;;0.70;;
30147;SDS011;16960;49.404;8.248;2023-11-19T13:14:18;1.40;;;0.73;;
30147;SDS011;16960;49.404;8.248;2023-11-19T13:16:47;1.33;;;0.63;;
30147;SDS011;16960;49.404;8.248;2023-11-19T13:19:14;1.43;;;0.70;;
30147;SDS011;16960;49.404;8.248;2023-11-19T13:21:44;1.97;;;0.53;;
30147;SDS011;16960;49.404;8.248;2023-11-19T13:24:12;0.93;;;0.60;;
30147;SDS011;16960;49.404;8.248;2023-11-19T13:26:39;1.00;;;0.50;;
30147;SDS011;16960;49.404;8.248;2023-11-19T13:29:06;1.10;;;0.70;;
30147;SDS011;16960;49.404;8.248;2023-11-19T13:31:33;1.53;;;0.60;;
30147;SDS011;16960;49.404;8.248;2023-11-19T13:34:01;3.17;;;0.90;;
30147;SDS011;16960;49.404;8.248;2023-11-19T13:36:28;1.00;;;0.60;;
30147;SDS011;16960;49.404;8.248;2023-11-19T13:38:56;2.00;;;0.50;;
30147;SDS011;16960;49.404;8.248;2023-11-19T13:41:24;1.20;;;0.90;;
30147;SDS011;16960;49.404;8.248;2023-11-19T13:43:51;1.17;;;0.50;;
30147;SDS011;16960;49.404;8.248;2023-11-19T13:46:18;0.77;;;0.60;;
30147;SDS011;16960;49.404;8.248;2023-11-19T13:48:45;1.17;;;0.50;;
30147;SDS011;16960;49.404;8.248;2023-11-19T13:51:16;1.37;;;0.60;;
30147;SDS011;16960;49.404;8.248;2023-11-19T13:53:43;1.77;;;1.30;;
30147;SDS011;16960;49.404;8.248;2023-11-19T13:56:10;4.83;;;0.53;;
30147;SDS011;16960;49.404;8.248;2023-11-19T13:58:37;3.17;;;1.10;;
30147;SDS011;16960;49.404;8.248;2023-11-19T14:01:05;3.33;;;0.90;;
30147;SDS011;16960;49.404;8.248;2023-11-19T14:03:32;3.67;;;1.20;;
30147;SDS011;16960;49.404;8.248;2023-11-19T14:05:59;4.50;;;1.50;;
30147;SDS011;16960;49.404;8.248;2023-11-19T14:08:28;3.07;;;1.50;;
30147;SDS011;16960;49.404;8.248;2023-11-19T14:10:55;4.20;;;2.20;;
30147;SDS011;16960;49.404;8.248;2023-11-19T14:13:22;2.53;;;1.60;;
30147;SDS011;16960;49.404;8.248;2023-11-19T14:15:49;1.83;;;1.13;;
30147;SDS011;16960;49.404;8.248;2023-11-19T14:18:16;3.43;;;1.40;;
30147;SDS011;16960;49.404;8.248;2023-11-19T14:20:43;2.40;;;1.30;;
30147;SDS011;16960;49.404;8.248;2023-11-19T14:23:10;2.17;;;1.13;;
30147;SDS011;16960;49.404;8.248;2023-11-19T14:25:39;2.03;;;1.10;;
30147;SDS011;16960;49.404;8.248;2023-11-19T14:28:05;2.13;;;1.03;;
30147;SDS011;16960;49.404;8.248;2023-11-19T14:30:33;1.65;;;0.90;;
30147;SDS011;16960;49.404;8.248;2023-11-19T14:33:00;1.57;;;1.30;;
30147;SDS011;16960;49.404;8.248;2023-11-19T14:35:28;3.80;;;1.00;;
30147;SDS011;16960;49.404;8.248;2023-11-19T14:37:57;2.00;;;1.00;;
30147;SDS011;16960;49.404;8.248;2023-11-19T14:40:24;3.07;;;1.10;;
30147;SDS011;16960;49.404;8.248;2023-11-19T14:42:53;1.43;;;1.03;;
30147;SDS011;16960;49.404;8.248;2023-11-19T14:45:20;2.23;;;1.07;;
30147;SDS011;16960;49.404;8.248;2023-11-19T14:47:47;1.17;;;1.00;;
30147;SDS011;16960;49.404;8.248;2023-11-19T14:50:14;1.60;;;0.80;;
30147;SDS011;16960;49.404;8.248;2023-11-19T14:52:41;1.33;;;0.97;;
30147;SDS011;16960;49.404;8.248;2023-11-19T14:55:08;1.60;;;1.00;;
30147;SDS011;16960;49.404;8.248;2023-11-19T14:57:36;2.87;;;1.23;;
30147;SDS011;16960;49.404;8.248;2023-11-19T15:00:06;2.67;;;1.03;;
30147;SDS011;16960;49.404;8.248;2023-11-19T15:02:38;1.23;;;0.80;;